createdAt,value
2023-05-15T00:03:00.050Z,13.1
2023-05-15T00:18:00.025Z,12.9
2023-05-15T00:33:00.058Z,12.9
2023-05-15T00:48:00.029Z,12.9
2023-05-15T01:03:00.239Z,12.8
2023-05-15T01:18:00.045Z,12.7
2023-05-15T01:33:00.064Z,12.6
2023-05-15T01:48:00.044Z,12.1
2023-05-15T02:03:00.077Z,11.9
2023-05-15T02:18:00.076Z,11.8
2023-05-15T02:33:00.054Z,11.5
2023-05-15T02:48:00.019Z,11.6
2023-05-15T03:03:00.056Z,11.4
2023-05-15T03:18:00.013Z,11
2023-05-15T03:33:00.109Z,10.8
2023-05-15T03:48:00.004Z,10.5
2023-05-15T04:03:00.101Z,10.5
2023-05-15T04:18:00.027Z,10.4
2023-05-15T04:33:00.040Z,10.3
2023-05-15T04:48:00.020Z,10.2
2023-05-15T05:03:00.023Z,9.9
2023-05-15T05:18:00.022Z,10.1
2023-05-15T05:33:00.045Z,10.1
2023-05-15T05:48:00.011Z,10.6
2023-05-15T06:03:00.177Z,10.8
2023-05-15T06:18:00.034Z,10.9
2023-05-15T06:33:00.337Z,10.8
2023-05-15T06:48:01.747Z,11.1
2023-05-15T07:03:00.039Z,11
2023-05-15T07:18:00.103Z,11.1
2023-05-15T07:33:00.059Z,11.1
2023-05-15T07:48:00.075Z,11.5
2023-05-15T08:03:00.071Z,11.8
2023-05-15T08:18:00.038Z,11.9
2023-05-15T08:33:00.048Z,12.3
2023-05-15T08:48:00.065Z,12.6
2023-05-15T09:03:00.091Z,13
2023-05-15T09:17:59.990Z,13.4
2023-05-15T09:33:00.090Z,13.5
2023-05-15T09:48:00.222Z,14.2
2023-05-15T10:03:00.054Z,14.3
2023-05-15T10:18:00.043Z,14.9
2023-05-15T10:33:00.039Z,14.9
2023-05-15T10:48:00.036Z,15.5
2023-05-15T11:03:00.012Z,16.1
2023-05-15T11:18:00.077Z,16.1
2023-05-15T11:33:00.024Z,16
2023-05-15T11:48:00.026Z,16.6
2023-05-15T12:03:00.131Z,17.6
2023-05-15T12:18:00.057Z,17.3
2023-05-15T12:33:00.048Z,18.1
2023-05-15T12:48:00.087Z,17.3
2023-05-15T13:03:00.059Z,17.4
2023-05-15T13:18:00.052Z,16.9
2023-05-15T13:33:00.086Z,16.8
2023-05-15T13:48:00.064Z,17.1
2023-05-15T14:03:00.084Z,16.7
2023-05-15T14:18:00.055Z,16.4
2023-05-15T14:33:00.024Z,15.9
2023-05-15T14:48:00.096Z,15.6
2023-05-15T15:03:00.080Z,15.5
2023-05-15T15:18:00.018Z,15.4
2023-05-15T15:33:00.030Z,15.5
2023-05-15T15:48:00.086Z,15.4
2023-05-15T16:03:00.074Z,15.3
2023-05-15T16:18:00.072Z,15
2023-05-15T16:33:00.070Z,13.2
2023-05-15T16:48:00.096Z,12
2023-05-15T17:03:00.072Z,12.1
2023-05-15T17:18:00.021Z,12.1
2023-05-15T17:33:00.088Z,11.6
2023-05-15T17:48:00.048Z,11.4
2023-05-15T18:03:00.106Z,11.3
2023-05-15T18:18:00.052Z,11.3
2023-05-15T18:33:00.036Z,11
2023-05-15T18:48:00.003Z,11.1
2023-05-15T19:03:00.080Z,11.1
2023-05-15T19:18:00.088Z,11
2023-05-15T19:33:00.072Z,10.9
2023-05-15T19:48:00.037Z,10.8
2023-05-15T20:03:00.125Z,10.7
2023-05-15T20:18:00.083Z,10.6
2023-05-15T20:33:00.031Z,10.3
2023-05-15T20:48:00.036Z,10.1
2023-05-15T21:03:00.058Z,9.9
2023-05-15T21:18:00.073Z,9.8
2023-05-15T21:33:00.055Z,9.6
2023-05-15T21:48:00.066Z,9.4
2023-05-15T22:03:00.144Z,9.2
2023-05-15T22:18:00.017Z,9.1
2023-05-15T22:33:00.040Z,9
2023-05-15T22:48:00.097Z,8.9
2023-05-15T23:03:00.010Z,8.8
2023-05-15T23:18:00.071Z,8.9
2023-05-15T23:33:00.116Z,8.8
2023-05-15T23:48:00.157Z,8.8
